sensor_id;sensor_type;location;lat;lon;timestamp;P1;durP1;ratioP1;P2;durP2;ratioP2
27794;SDS011;15176;50.844;4.412;2022-10-31T00:01:30;12.30;;;6.07;;
27794;SDS011;15176;50.844;4.412;2022-10-31T00:04:00;10.65;;;5.18;;
27794;SDS011;15176;50.844;4.412;2022-10-31T00:06:26;15.93;;;6.60;;
27794;SDS011;15176;50.844;4.412;2022-10-31T00:08:53;14.13;;;6.78;;
27794;SDS011;15176;50.844;4.412;2022-10-31T00:11:20;14.98;;;5.63;;
27794;SDS011;15176;50.844;4.412;2022-10-31T00:13:46;12.77;;;5.18;;
27794;SDS011;15176;50.844;4.412;2022-10-31T00:16:16;9.52;;;5.22;;
27794;SDS011;15176;50.844;4.412;2022-10-31T00:18:43;13.10;;;6.30;;
27794;SDS011;15176;50.844;4.412;2022-10-31T00:21:09;13.43;;;4.97;;
27794;SDS011;15176;50.844;4.412;2022-10-31T00:23:40;12.00;;;6.20;;
27794;SDS011;15176;50.844;4.412;2022-10-31T00:26:16;15.60;;;6.82;;
27794;SDS011;15176;50.844;4.412;2022-10-31T00:28:50;12.55;;;6.25;;
27794;SDS011;15176;50.844;4.412;2022-10-31T00:31:41;13.55;;;5.60;;
27794;SDS011;15176;50.844;4.412;2022-10-31T00:34:38;14.73;;;6.28;;
27794;SDS011;15176;50.844;4.412;2022-10-31T00:37:34;12.82;;;6.82;;
27794;SDS011;15176;50.844;4.412;2022-10-31T00:40:00;10.38;;;4.95;;
27794;SDS011;15176;50.844;4.412;2022-10-31T00:42:28;9.13;;;4.30;;
27794;SDS011;15176;50.844;4.412;2022-10-31T00:44:57;11.38;;;5.78;;
27794;SDS011;15176;50.844;4.412;2022-10-31T00:47:29;12.63;;;5.15;;
27794;SDS011;15176;50.844;4.412;2022-10-31T00:49:57;11.85;;;5.70;;
27794;SDS011;15176;50.844;4.412;2022-10-31T00:52:31;15.68;;;6.28;;
27794;SDS011;15176;50.844;4.412;2022-10-31T00:54:59;13.57;;;6.13;;
27794;SDS011;15176;50.844;4.412;2022-10-31T00:57:31;8.13;;;3.95;;
27794;SDS011;15176;50.844;4.412;2022-10-31T01:00:19;13.80;;;6.25;;
27794;SDS011;15176;50.844;4.412;2022-10-31T01:02:51;11.40;;;4.95;;
27794;SDS011;15176;50.844;4.412;2022-10-31T01:05:18;12.48;;;5.53;;
27794;SDS011;15176;50.844;4.412;2022-10-31T01:07:45;9.02;;;4.15;;
27794;SDS011;15176;50.844;4.412;2022-10-31T01:10:11;13.13;;;5.57;;
27794;SDS011;15176;50.844;4.412;2022-10-31T01:12:52;13.63;;;5.70;;
27794;SDS011;15176;50.844;4.412;2022-10-31T01:15:19;14.55;;;5.43;;
27794;SDS011;15176;50.844;4.412;2022-10-31T01:17:49;11.95;;;5.47;;
27794;SDS011;15176;50.844;4.412;2022-10-31T01:20:18;11.82;;;5.55;;
27794;SDS011;15176;50.844;4.412;2022-10-31T01:22:44;11.82;;;4.88;;
27794;SDS011;15176;50.844;4.412;2022-10-31T01:25:14;10.65;;;4.25;;
27794;SDS011;15176;50.844;4.412;2022-10-31T01:27:41;12.52;;;5.35;;
27794;SDS011;15176;50.844;4.412;2022-10-31T01:30:09;13.00;;;5.65;;
27794;SDS011;15176;50.844;4.412;2022-10-31T01:32:35;13.35;;;4.88;;
27794;SDS011;15176;50.844;4.412;2022-10-31T01:35:01;10.98;;;4.70;;
27794;SDS011;15176;50.844;4.412;2022-10-31T01:37:30;11.88;;;4.72;;
27794;SDS011;15176;50.844;4.412;2022-10-31T01:39:57;11.93;;;4.63;;
27794;SDS011;15176;50.844;4.412;2022-10-31T01:42:33;9.32;;;4.68;;
27794;SDS011;15176;50.844;4.412;2022-10-31T01:45:00;12.13;;;4.68;;
27794;SDS011;15176;50.844;4.412;2022-10-31T01:47:48;10.20;;;4.82;;
27794;SDS011;15176;50.844;4.412;2022-10-31T01:50:19;10.57;;;4.93;;
27794;SDS011;15176;50.844;4.412;2022-10-31T01:52:55;7.85;;;4.40;;
27794;SDS011;15176;50.844;4.412;2022-10-31T01:55:30;10.25;;;4.35;;
27794;SDS011;15176;50.844;4.412;2022-10-31T02:01:15;11.60;;;4.68;;
27794;SDS011;15176;50.844;4.412;2022-10-31T02:03:43;15.60;;;6.15;;
27794;SDS011;15176;50.844;4.412;2022-10-31T02:06:24;11.10;;;5.40;;
27794;SDS011;15176;50.844;4.412;2022-10-31T02:09:04;14.63;;;5.95;;
27794;SDS011;15176;50.844;4.412;2022-10-31T02:11:31;10.02;;;5.25;;
27794;SDS011;15176;50.844;4.412;2022-10-31T02:14:00;10.73;;;4.30;;
27794;SDS011;15176;50.844;4.412;2022-10-31T02:16:27;14.10;;;5.60;;
27794;SDS011;15176;50.844;4.412;2022-10-31T02:18:53;11.05;;;5.53;;
27794;SDS011;15176;50.844;4.412;2022-10-31T02:34:58;11.65;;;6.00;;
27794;SDS011;15176;50.844;4.412;2022-10-31T02:40:09;16.58;;;6.07;;
27794;SDS011;15176;50.844;4.412;2022-10-31T02:42:45;17.38;;;6.57;;
27794;SDS011;15176;50.844;4.412;2022-10-31T02:45:26;12.10;;;6.00;;
27794;SDS011;15176;50.844;4.412;2022-10-31T02:48:00;17.90;;;6.10;;
27794;SDS011;15176;50.844;4.412;2022-10-31T02:50:33;16.38;;;7.10;;
27794;SDS011;15176;50.844;4.412;2022-10-31T02:53:02;15.13;;;6.53;;
27794;SDS011;15176;50.844;4.412;2022-10-31T03:00:56;11.98;;;6.03;;
27794;SDS011;15176;50.844;4.412;2022-10-31T03:03:42;13.00;;;6.55;;
27794;SDS011;15176;50.844;4.412;2022-10-31T03:09:11;12.57;;;6.05;;
27794;SDS011;15176;50.844;4.412;2022-10-31T03:12:10;8.25;;;4.13;;
27794;SDS011;15176;50.844;4.412;2022-10-31T03:14:53;12.45;;;6.57;;
27794;SDS011;15176;50.844;4.412;2022-10-31T03:17:53;12.80;;;6.25;;
27794;SDS011;15176;50.844;4.412;2022-10-31T03:20:20;12.10;;;6.93;;
27794;SDS011;15176;50.844;4.412;2022-10-31T03:22:51;13.70;;;6.30;;
27794;SDS011;15176;50.844;4.412;2022-10-31T03:25:19;13.45;;;6.40;;
27794;SDS011;15176;50.844;4.412;2022-10-31T03:27:45;14.88;;;6.50;;
27794;SDS011;15176;50.844;4.412;2022-10-31T03:30:14;13.13;;;5.72;;
27794;SDS011;15176;50.844;4.412;2022-10-31T03:32:47;14.45;;;5.50;;
27794;SDS011;15176;50.844;4.412;2022-10-31T03:35:18;17.08;;;5.40;;
27794;SDS011;15176;50.844;4.412;2022-10-31T03:37:46;10.68;;;5.28;;
27794;SDS011;15176;50.844;4.412;2022-10-31T03:40:13;13.48;;;5.28;;
27794;SDS011;15176;50.844;4.412;2022-10-31T03:42:41;9.77;;;5.68;;
27794;SDS011;15176;50.844;4.412;2022-10-31T03:45:12;12.85;;;6.28;;
27794;SDS011;15176;50.844;4.412;2022-10-31T03:47:46;13.00;;;6.05;;
27794;SDS011;15176;50.844;4.412;2022-10-31T03:50:13;15.07;;;6.13;;
27794;SDS011;15176;50.844;4.412;2022-10-31T03:52:50;10.35;;;5.57;;
27794;SDS011;15176;50.844;4.412;2022-10-31T03:55:40;11.25;;;5.35;;
27794;SDS011;15176;50.844;4.412;2022-10-31T03:58:18;16.58;;;6.43;;
27794;SDS011;15176;50.844;4.412;2022-10-31T04:00:49;16.75;;;6.05;;
27794;SDS011;15176;50.844;4.412;2022-10-31T04:03:18;12.77;;;6.35;;
27794;SDS011;15176;50.844;4.412;2022-10-31T04:05:58;17.23;;;6.75;;
27794;SDS011;15176;50.844;4.412;2022-10-31T04:08:29;13.35;;;6.60;;
27794;SDS011;15176;50.844;4.412;2022-10-31T04:10:58;11.98;;;6.35;;
27794;SDS011;15176;50.844;4.412;2022-10-31T04:13:27;11.30;;;5.40;;
27794;SDS011;15176;50.844;4.412;2022-10-31T04:15:55;12.82;;;5.97;;
27794;SDS011;15176;50.844;4.412;2022-10-31T04:18:24;12.60;;;6.88;;
27794;SDS011;15176;50.844;4.412;2022-10-31T04:20:58;12.82;;;7.03;;
27794;SDS011;15176;50.844;4.412;2022-10-31T04:23:26;11.85;;;5.30;;
27794;SDS011;15176;50.844;4.412;2022-10-31T04:25:52;9.05;;;4.93;;
27794;SDS011;15176;50.844;4.412;2022-10-31T04:28:18;12.38;;;7.05;;
27794;SDS011;15176;50.844;4.412;2022-10-31T04:30:44;16.60;;;7.55;;
27794;SDS011;15176;50.844;4.412;2022-10-31T04:33:09;13.45;;;6.03;;
27794;SDS011;15176;50.844;4.412;2022-10-31T04:35:35;10.77;;;5.47;;
27794;SDS011;15176;50.844;4.412;2022-10-31T04:38:01;13.20;;;6.47;;
27794;SDS011;15176;50.844;4.412;2022-10-31T04:40:27;15.75;;;7.47;;
27794;SDS011;15176;50.844;4.412;2022-10-31T04:42:52;10.02;;;5.47;;
27794;SDS011;15176;50.844;4.412;2022-10-31T04:45:18;14.55;;;6.97;;
27794;SDS011;15176;50.844;4.412;2022-10-31T04:47:44;15.20;;;7.10;;
27794;SDS011;15176;50.844;4.412;2022-10-31T04:50:09;17.55;;;8.45;;
27794;SDS011;15176;50.844;4.412;2022-10-31T04:52:41;13.98;;;7.68;;
27794;SDS011;15176;50.844;4.412;2022-10-31T04:55:09;15.65;;;7.18;;
27794;SDS011;15176;50.844;4.412;2022-10-31T04:57:42;15.10;;;6.55;;
27794;SDS011;15176;50.844;4.412;2022-10-31T05:00:09;15.95;;;6.93;;
27794;SDS011;15176;50.844;4.412;2022-10-31T05:02:55;17.13;;;8.88;;
27794;SDS011;15176;50.844;4.412;2022-10-31T05:05:23;17.60;;;9.43;;
27794;SDS011;15176;50.844;4.412;2022-10-31T05:07:51;16.58;;;8.07;;
27794;SDS011;15176;50.844;4.412;2022-10-31T05:10:18;16.08;;;9.57;;
27794;SDS011;15176;50.844;4.412;2022-10-31T05:12:47;18.67;;;8.60;;
27794;SDS011;15176;50.844;4.412;2022-10-31T05:15:14;15.05;;;7.68;;
27794;SDS011;15176;50.844;4.412;2022-10-31T05:17:40;19.27;;;9.35;;
27794;SDS011;15176;50.844;4.412;2022-10-31T05:20:06;18.42;;;9.88;;
27794;SDS011;15176;50.844;4.412;2022-10-31T05:22:32;21.85;;;9.50;;
27794;SDS011;15176;50.844;4.412;2022-10-31T05:25:00;16.15;;;9.73;;
27794;SDS011;15176;50.844;4.412;2022-10-31T05:27:25;16.77;;;8.88;;
27794;SDS011;15176;50.844;4.412;2022-10-31T05:29:51;15.75;;;8.65;;
27794;SDS011;15176;50.844;4.412;2022-10-31T05:32:17;11.13;;;5.55;;
27794;SDS011;15176;50.844;4.412;2022-10-31T05:34:42;20.38;;;9.07;;
27794;SDS011;15176;50.844;4.412;2022-10-31T05:37:09;23.42;;;9.15;;
27794;SDS011;15176;50.844;4.412;2022-10-31T05:39:35;15.77;;;6.82;;
27794;SDS011;15176;50.844;4.412;2022-10-31T05:42:01;8.82;;;4.93;;
27794;SDS011;15176;50.844;4.412;2022-10-31T05:44:26;18.17;;;8.88;;
27794;SDS011;15176;50.844;4.412;2022-10-31T05:46:52;16.65;;;8.73;;
27794;SDS011;15176;50.844;4.412;2022-10-31T05:49:18;19.88;;;8.60;;
27794;SDS011;15176;50.844;4.412;2022-10-31T05:51:44;17.55;;;9.27;;
27794;SDS011;15176;50.844;4.412;2022-10-31T05:54:10;12.63;;;6.47;;
27794;SDS011;15176;50.844;4.412;2022-10-31T05:56:35;18.85;;;9.25;;
27794;SDS011;15176;50.844;4.412;2022-10-31T05:59:01;16.50;;;9.43;;
27794;SDS011;15176;50.844;4.412;2022-10-31T06:01:26;13.27;;;6.90;;
27794;SDS011;15176;50.844;4.412;2022-10-31T06:03:52;12.30;;;7.93;;
27794;SDS011;15176;50.844;4.412;2022-10-31T06:06:18;9.52;;;5.82;;
27794;SDS011;15176;50.844;4.412;2022-10-31T06:08:44;16.15;;;8.88;;
27794;SDS011;15176;50.844;4.412;2022-10-31T06:11:10;11.63;;;6.85;;
27794;SDS011;15176;50.844;4.412;2022-10-31T06:13:36;15.73;;;9.30;;
27794;SDS011;15176;50.844;4.412;2022-10-31T06:16:01;16.33;;;7.78;;
27794;SDS011;15176;50.844;4.412;2022-10-31T06:18:27;14.27;;;8.00;;
27794;SDS011;15176;50.844;4.412;2022-10-31T06:20:54;18.98;;;8.27;;
27794;SDS011;15176;50.844;4.412;2022-10-31T06:23:20;15.98;;;6.97;;
27794;SDS011;15176;50.844;4.412;2022-10-31T06:25:49;22.27;;;8.00;;
27794;SDS011;15176;50.844;4.412;2022-10-31T06:28:15;13.90;;;6.47;;
27794;SDS011;15176;50.844;4.412;2022-10-31T06:30:41;15.45;;;8.50;;
27794;SDS011;15176;50.844;4.412;2022-10-31T06:33:07;15.70;;;8.85;;
27794;SDS011;15176;50.844;4.412;2022-10-31T06:35:33;9.88;;;5.97;;
27794;SDS011;15176;50.844;4.412;2022-10-31T06:37:59;15.73;;;9.18;;
27794;SDS011;15176;50.844;4.412;2022-10-31T06:40:26;12.48;;;6.97;;
27794;SDS011;15176;50.844;4.412;2022-10-31T06:42:56;18.60;;;6.88;;
27794;SDS011;15176;50.844;4.412;2022-10-31T06:45:25;14.60;;;7.38;;
27794;SDS011;15176;50.844;4.412;2022-10-31T06:47:52;20.67;;;8.98;;
27794;SDS011;15176;50.844;4.412;2022-10-31T06:50:19;13.50;;;7.00;;
27794;SDS011;15176;50.844;4.412;2022-10-31T06:52:55;12.98;;;7.88;;
27794;SDS011;15176;50.844;4.412;2022-10-31T06:55:23;12.40;;;6.60;;
27794;SDS011;15176;50.844;4.412;2022-10-31T06:57:51;18.23;;;9.30;;
27794;SDS011;15176;50.844;4.412;2022-10-31T07:00:18;15.82;;;8.15;;
27794;SDS011;15176;50.844;4.412;2022-10-31T07:05:30;13.95;;;6.88;;
27794;SDS011;15176;50.844;4.412;2022-10-31T07:08:01;15.40;;;8.32;;
27794;SDS011;15176;50.844;4.412;2022-10-31T07:10:29;18.52;;;9.30;;
27794;SDS011;15176;50.844;4.412;2022-10-31T07:12:58;17.23;;;8.23;;
27794;SDS011;15176;50.844;4.412;2022-10-31T07:15:28;13.40;;;7.18;;
27794;SDS011;15176;50.844;4.412;2022-10-31T07:17:59;12.77;;;6.72;;
27794;SDS011;15176;50.844;4.412;2022-10-31T07:20:26;16.88;;;8.00;;
27794;SDS011;15176;50.844;4.412;2022-10-31T07:22:52;19.02;;;9.30;;
27794;SDS011;15176;50.844;4.412;2022-10-31T07:25:18;18.33;;;8.63;;
27794;SDS011;15176;50.844;4.412;2022-10-31T07:27:43;11.90;;;6.75;;
27794;SDS011;15176;50.844;4.412;2022-10-31T07:30:11;12.13;;;7.38;;
27794;SDS011;15176;50.844;4.412;2022-10-31T07:32:38;18.45;;;9.20;;
27794;SDS011;15176;50.844;4.412;2022-10-31T07:35:09;15.00;;;7.65;;
27794;SDS011;15176;50.844;4.412;2022-10-31T07:37:45;19.67;;;9.05;;
27794;SDS011;15176;50.844;4.412;2022-10-31T07:40:12;19.23;;;7.85;;
27794;SDS011;15176;50.844;4.412;2022-10-31T07:42:39;13.48;;;7.50;;
27794;SDS011;15176;50.844;4.412;2022-10-31T07:45:09;16.48;;;8.68;;
27794;SDS011;15176;50.844;4.412;2022-10-31T07:47:41;15.73;;;5.90;;
27794;SDS011;15176;50.844;4.412;2022-10-31T07:50:10;16.38;;;7.68;;
27794;SDS011;15176;50.844;4.412;2022-10-31T07:52:37;16.10;;;8.25;;
27794;SDS011;15176;50.844;4.412;2022-10-31T07:55:04;10.20;;;5.72;;
27794;SDS011;15176;50.844;4.412;2022-10-31T07:57:31;14.70;;;6.88;;
27794;SDS011;15176;50.844;4.412;2022-10-31T07:59:57;18.17;;;6.70;;
27794;SDS011;15176;50.844;4.412;2022-10-31T08:02:23;12.57;;;6.70;;
27794;SDS011;15176;50.844;4.412;2022-10-31T08:04:49;12.82;;;6.03;;
27794;SDS011;15176;50.844;4.412;2022-10-31T08:07:15;11.55;;;6.22;;
27794;SDS011;15176;50.844;4.412;2022-10-31T08:09:41;12.80;;;6.22;;
27794;SDS011;15176;50.844;4.412;2022-10-31T08:12:09;13.55;;;6.35;;
27794;SDS011;15176;50.844;4.412;2022-10-31T08:14:35;14.45;;;6.68;;
27794;SDS011;15176;50.844;4.412;2022-10-31T08:17:01;13.18;;;6.07;;
27794;SDS011;15176;50.844;4.412;2022-10-31T08:19:27;14.30;;;5.80;;
27794;SDS011;15176;50.844;4.412;2022-10-31T08:22:03;15.63;;;7.00;;
27794;SDS011;15176;50.844;4.412;2022-10-31T08:24:36;14.43;;;6.97;;
27794;SDS011;15176;50.844;4.412;2022-10-31T08:27:07;15.45;;;6.97;;
27794;SDS011;15176;50.844;4.412;2022-10-31T08:29:33;14.20;;;7.10;;
27794;SDS011;15176;50.844;4.412;2022-10-31T08:32:02;10.60;;;4.90;;
27794;SDS011;15176;50.844;4.412;2022-10-31T08:34:28;14.43;;;4.97;;
27794;SDS011;15176;50.844;4.412;2022-10-31T08:36:54;15.25;;;7.20;;
27794;SDS011;15176;50.844;4.412;2022-10-31T08:39:20;11.52;;;5.45;;
27794;SDS011;15176;50.844;4.412;2022-10-31T08:41:45;15.38;;;5.88;;
27794;SDS011;15176;50.844;4.412;2022-10-31T08:44:11;14.13;;;7.32;;
27794;SDS011;15176;50.844;4.412;2022-10-31T08:46:37;7.18;;;4.25;;
27794;SDS011;15176;50.844;4.412;2022-10-31T08:49:03;11.52;;;5.30;;
27794;SDS011;15176;50.844;4.412;2022-10-31T08:51:29;13.95;;;5.68;;
27794;SDS011;15176;50.844;4.412;2022-10-31T08:53:55;16.02;;;6.85;;
27794;SDS011;15176;50.844;4.412;2022-10-31T08:56:21;15.45;;;6.68;;
27794;SDS011;15176;50.844;4.412;2022-10-31T08:58:47;16.55;;;7.10;;
27794;SDS011;15176;50.844;4.412;2022-10-31T09:01:13;10.35;;;5.18;;
27794;SDS011;15176;50.844;4.412;2022-10-31T09:03:40;11.00;;;6.78;;
27794;SDS011;15176;50.844;4.412;2022-10-31T09:06:05;11.27;;;6.43;;
27794;SDS011;15176;50.844;4.412;2022-10-31T09:08:35;10.38;;;4.90;;
27794;SDS011;15176;50.844;4.412;2022-10-31T09:11:03;12.65;;;6.68;;
27794;SDS011;15176;50.844;4.412;2022-10-31T09:13:29;9.23;;;4.25;;
27794;SDS011;15176;50.844;4.412;2022-10-31T09:15:56;15.27;;;5.93;;
27794;SDS011;15176;50.844;4.412;2022-10-31T09:18:23;13.27;;;5.75;;
27794;SDS011;15176;50.844;4.412;2022-10-31T09:20:52;10.05;;;4.25;;
27794;SDS011;15176;50.844;4.412;2022-10-31T09:23:18;10.18;;;5.82;;
27794;SDS011;15176;50.844;4.412;2022-10-31T09:25:46;16.00;;;6.85;;
27794;SDS011;15176;50.844;4.412;2022-10-31T09:28:14;13.13;;;6.10;;
27794;SDS011;15176;50.844;4.412;2022-10-31T09:30:41;7.72;;;4.80;;
27794;SDS011;15176;50.844;4.412;2022-10-31T09:33:14;19.88;;;8.25;;
27794;SDS011;15176;50.844;4.412;2022-10-31T09:35:42;9.77;;;3.92;;
27794;SDS011;15176;50.844;4.412;2022-10-31T09:38:13;8.57;;;3.22;;
27794;SDS011;15176;50.844;4.412;2022-10-31T09:40:43;10.00;;;4.53;;
27794;SDS011;15176;50.844;4.412;2022-10-31T09:43:25;11.65;;;4.00;;
27794;SDS011;15176;50.844;4.412;2022-10-31T09:51:55;11.10;;;5.65;;
27794;SDS011;15176;50.844;4.412;2022-10-31T09:57:17;10.65;;;5.60;;
27794;SDS011;15176;50.844;4.412;2022-10-31T09:59:49;10.63;;;4.88;;
27794;SDS011;15176;50.844;4.412;2022-10-31T10:02:22;12.50;;;5.20;;
27794;SDS011;15176;50.844;4.412;2022-10-31T10:05:10;10.57;;;4.70;;
27794;SDS011;15176;50.844;4.412;2022-10-31T10:15:58;7.97;;;4.20;;
27794;SDS011;15176;50.844;4.412;2022-10-31T10:29:51;9.75;;;4.95;;
27794;SDS011;15176;50.844;4.412;2022-10-31T10:32:28;14.60;;;5.78;;
27794;SDS011;15176;50.844;4.412;2022-10-31T10:38:08;15.43;;;5.95;;
27794;SDS011;15176;50.844;4.412;2022-10-31T10:40:59;17.33;;;7.03;;
27794;SDS011;15176;50.844;4.412;2022-10-31T10:43:40;13.05;;;5.82;;
27794;SDS011;15176;50.844;4.412;2022-10-31T10:46:12;11.73;;;5.97;;
27794;SDS011;15176;50.844;4.412;2022-10-31T10:49:26;16.35;;;6.70;;
27794;SDS011;15176;50.844;4.412;2022-10-31T10:55:15;19.08;;;7.32;;
27794;SDS011;15176;50.844;4.412;2022-10-31T11:02:44;8.80;;;5.13;;
27794;SDS011;15176;50.844;4.412;2022-10-31T11:05:15;16.45;;;7.10;;
27794;SDS011;15176;50.844;4.412;2022-10-31T11:07:53;15.32;;;6.97;;
27794;SDS011;15176;50.844;4.412;2022-10-31T11:10:19;13.10;;;6.68;;
27794;SDS011;15176;50.844;4.412;2022-10-31T11:13:14;14.98;;;7.40;;
27794;SDS011;15176;50.844;4.412;2022-10-31T11:15:57;13.32;;;6.25;;
27794;SDS011;15176;50.844;4.412;2022-10-31T11:18:32;18.92;;;7.00;;
27794;SDS011;15176;50.844;4.412;2022-10-31T11:21:02;16.35;;;7.80;;
27794;SDS011;15176;50.844;4.412;2022-10-31T11:23:29;15.88;;;7.63;;
27794;SDS011;15176;50.844;4.412;2022-10-31T11:26:00;14.63;;;7.22;;
27794;SDS011;15176;50.844;4.412;2022-10-31T11:28:28;13.02;;;7.10;;
27794;SDS011;15176;50.844;4.412;2022-10-31T11:31:01;17.23;;;6.53;;
27794;SDS011;15176;50.844;4.412;2022-10-31T11:33:45;11.93;;;5.63;;
27794;SDS011;15176;50.844;4.412;2022-10-31T11:36:23;15.50;;;6.32;;
27794;SDS011;15176;50.844;4.412;2022-10-31T11:38:49;18.67;;;7.70;;
27794;SDS011;15176;50.844;4.412;2022-10-31T11:41:17;16.35;;;6.68;;
27794;SDS011;15176;50.844;4.412;2022-10-31T11:43:53;14.35;;;6.82;;
27794;SDS011;15176;50.844;4.412;2022-10-31T11:46:33;12.35;;;6.70;;
27794;SDS011;15176;50.844;4.412;2022-10-31T11:49:02;23.70;;;10.25;;
27794;SDS011;15176;50.844;4.412;2022-10-31T11:51:31;24.58;;;8.30;;
27794;SDS011;15176;50.844;4.412;2022-10-31T11:54:00;17.15;;;6.65;;
27794;SDS011;15176;50.844;4.412;2022-10-31T11:56:38;14.13;;;6.03;;
27794;SDS011;15176;50.844;4.412;2022-10-31T11:59:14;15.82;;;7.80;;
27794;SDS011;15176;50.844;4.412;2022-10-31T12:01:49;16.58;;;7.18;;
27794;SDS011;15176;50.844;4.412;2022-10-31T12:04:16;26.30;;;7.60;;
27794;SDS011;15176;50.844;4.412;2022-10-31T12:06:42;17.52;;;7.15;;
27794;SDS011;15176;50.844;4.412;2022-10-31T12:09:22;15.02;;;7.55;;
27794;SDS011;15176;50.844;4.412;2022-10-31T12:14:55;12.63;;;6.43;;
27794;SDS011;15176;50.844;4.412;2022-10-31T12:23:17;12.88;;;6.82;;
27794;SDS011;15176;50.844;4.412;2022-10-31T12:31:33;14.63;;;5.97;;
27794;SDS011;15176;50.844;4.412;2022-10-31T12:55:40;16.48;;;5.32;;
27794;SDS011;15176;50.844;4.412;2022-10-31T13:00:57;15.20;;;5.20;;
27794;SDS011;15176;50.844;4.412;2022-10-31T13:03:47;13.90;;;5.10;;
27794;SDS011;15176;50.844;4.412;2022-10-31T13:06:24;10.98;;;4.68;;
27794;SDS011;15176;50.844;4.412;2022-10-31T13:08:56;15.95;;;5.20;;
27794;SDS011;15176;50.844;4.412;2022-10-31T13:11:35;11.77;;;4.30;;
27794;SDS011;15176;50.844;4.412;2022-10-31T13:17:39;13.43;;;4.93;;
27794;SDS011;15176;50.844;4.412;2022-10-31T13:20:16;10.65;;;4.60;;
27794;SDS011;15176;50.844;4.412;2022-10-31T13:22:44;20.58;;;5.50;;
27794;SDS011;15176;50.844;4.412;2022-10-31T13:25:15;19.20;;;5.68;;
27794;SDS011;15176;50.844;4.412;2022-10-31T13:30:53;16.10;;;5.90;;
27794;SDS011;15176;50.844;4.412;2022-10-31T13:33:26;16.20;;;5.88;;
27794;SDS011;15176;50.844;4.412;2022-10-31T13:44:18;19.00;;;5.57;;
27794;SDS011;15176;50.844;4.412;2022-10-31T13:46:49;16.85;;;5.88;;
27794;SDS011;15176;50.844;4.412;2022-10-31T13:54:37;11.15;;;4.88;;
27794;SDS011;15176;50.844;4.412;2022-10-31T13:59:47;11.43;;;4.80;;
27794;SDS011;15176;50.844;4.412;2022-10-31T14:02:19;13.27;;;4.70;;
27794;SDS011;15176;50.844;4.412;2022-10-31T14:04:53;13.93;;;4.78;;
27794;SDS011;15176;50.844;4.412;2022-10-31T14:07:24;12.52;;;4.13;;
27794;SDS011;15176;50.844;4.412;2022-10-31T14:09:58;13.25;;;3.80;;
27794;SDS011;15176;50.844;4.412;2022-10-31T14:12:30;14.05;;;4.28;;
27794;SDS011;15176;50.844;4.412;2022-10-31T14:15:18;12.00;;;4.30;;
27794;SDS011;15176;50.844;4.412;2022-10-31T14:17:52;15.85;;;4.80;;
27794;SDS011;15176;50.844;4.412;2022-10-31T14:20:22;16.58;;;4.40;;
27794;SDS011;15176;50.844;4.412;2022-10-31T14:28:59;14.35;;;4.18;;
27794;SDS011;15176;50.844;4.412;2022-10-31T14:31:45;17.25;;;4.32;;
27794;SDS011;15176;50.844;4.412;2022-10-31T14:34:26;16.95;;;4.53;;
27794;SDS011;15176;50.844;4.412;2022-10-31T14:37:16;14.75;;;4.03;;
27794;SDS011;15176;50.844;4.412;2022-10-31T14:45:38;17.23;;;7.80;;
27794;SDS011;15176;50.844;4.412;2022-10-31T14:48:56;14.98;;;4.07;;
27794;SDS011;15176;50.844;4.412;2022-10-31T14:51:15;11.50;;;4.30;;
27794;SDS011;15176;50.844;4.412;2022-10-31T14:53:48;9.77;;;4.18;;
27794;SDS011;15176;50.844;4.412;2022-10-31T14:56:27;12.70;;;4.68;;
27794;SDS011;15176;50.844;4.412;2022-10-31T14:58:59;15.70;;;4.88;;
27794;SDS011;15176;50.844;4.412;2022-10-31T15:01:33;18.25;;;5.00;;
27794;SDS011;15176;50.844;4.412;2022-10-31T15:06:44;14.02;;;5.07;;
27794;SDS011;15176;50.844;4.412;2022-10-31T15:09:27;10.45;;;3.92;;
27794;SDS011;15176;50.844;4.412;2022-10-31T15:12:00;14.73;;;4.70;;
27794;SDS011;15176;50.844;4.412;2022-10-31T15:14:46;15.23;;;5.10;;
27794;SDS011;15176;50.844;4.412;2022-10-31T15:17:12;13.88;;;5.38;;
27794;SDS011;15176;50.844;4.412;2022-10-31T15:19:39;17.45;;;7.13;;
27794;SDS011;15176;50.844;4.412;2022-10-31T15:22:05;14.80;;;6.25;;
27794;SDS011;15176;50.844;4.412;2022-10-31T15:24:36;13.60;;;5.82;;
27794;SDS011;15176;50.844;4.412;2022-10-31T15:27:04;13.95;;;4.82;;
27794;SDS011;15176;50.844;4.412;2022-10-31T15:29:35;13.95;;;5.25;;
27794;SDS011;15176;50.844;4.412;2022-10-31T15:32:12;21.70;;;6.07;;
27794;SDS011;15176;50.844;4.412;2022-10-31T15:34:46;17.75;;;5.90;;
27794;SDS011;15176;50.844;4.412;2022-10-31T15:37:13;22.17;;;7.30;;
27794;SDS011;15176;50.844;4.412;2022-10-31T15:39:40;16.45;;;6.90;;
27794;SDS011;15176;50.844;4.412;2022-10-31T15:45:05;15.32;;;6.50;;
27794;SDS011;15176;50.844;4.412;2022-10-31T15:50:21;21.73;;;6.95;;
27794;SDS011;15176;50.844;4.412;2022-10-31T15:52:57;17.08;;;7.10;;
27794;SDS011;15176;50.844;4.412;2022-10-31T15:55:25;15.45;;;7.18;;
27794;SDS011;15176;50.844;4.412;2022-10-31T15:58:03;14.88;;;5.65;;
27794;SDS011;15176;50.844;4.412;2022-10-31T16:00:36;23.55;;;7.70;;
27794;SDS011;15176;50.844;4.412;2022-10-31T16:05:44;14.90;;;6.20;;
27794;SDS011;15176;50.844;4.412;2022-10-31T16:08:32;18.25;;;7.65;;
27794;SDS011;15176;50.844;4.412;2022-10-31T16:14:00;18.35;;;7.00;;
27794;SDS011;15176;50.844;4.412;2022-10-31T16:16:26;16.88;;;7.82;;
27794;SDS011;15176;50.844;4.412;2022-10-31T16:18:54;18.85;;;7.88;;
27794;SDS011;15176;50.844;4.412;2022-10-31T16:21:28;17.75;;;8.07;;
27794;SDS011;15176;50.844;4.412;2022-10-31T16:24:00;19.98;;;8.05;;
27794;SDS011;15176;50.844;4.412;2022-10-31T16:26:33;17.67;;;7.22;;
27794;SDS011;15176;50.844;4.412;2022-10-31T16:28:59;21.70;;;7.93;;
27794;SDS011;15176;50.844;4.412;2022-10-31T16:31:26;21.23;;;8.52;;
27794;SDS011;15176;50.844;4.412;2022-10-31T16:36:49;21.70;;;8.38;;
27794;SDS011;15176;50.844;4.412;2022-10-31T16:39:15;24.27;;;7.55;;
27794;SDS011;15176;50.844;4.412;2022-10-31T16:41:42;16.17;;;7.20;;
27794;SDS011;15176;50.844;4.412;2022-10-31T16:44:28;12.50;;;6.43;;
27794;SDS011;15176;50.844;4.412;2022-10-31T16:47:07;18.35;;;7.05;;
27794;SDS011;15176;50.844;4.412;2022-10-31T16:49:34;14.93;;;6.15;;
27794;SDS011;15176;50.844;4.412;2022-10-31T16:51:59;17.77;;;7.47;;
27794;SDS011;15176;50.844;4.412;2022-10-31T16:54:25;11.90;;;5.72;;
27794;SDS011;15176;50.844;4.412;2022-10-31T16:56:54;12.70;;;5.60;;
27794;SDS011;15176;50.844;4.412;2022-10-31T16:59:20;16.15;;;8.13;;
27794;SDS011;15176;50.844;4.412;2022-10-31T17:01:46;13.23;;;6.13;;
27794;SDS011;15176;50.844;4.412;2022-10-31T17:04:14;27.70;;;7.55;;
27794;SDS011;15176;50.844;4.412;2022-10-31T17:06:41;18.15;;;7.38;;
27794;SDS011;15176;50.844;4.412;2022-10-31T17:09:07;14.95;;;5.80;;
27794;SDS011;15176;50.844;4.412;2022-10-31T17:11:33;13.63;;;5.80;;
27794;SDS011;15176;50.844;4.412;2022-10-31T17:13:59;15.77;;;6.15;;
27794;SDS011;15176;50.844;4.412;2022-10-31T17:16:26;13.40;;;6.00;;
27794;SDS011;15176;50.844;4.412;2022-10-31T17:18:53;11.85;;;4.60;;
27794;SDS011;15176;50.844;4.412;2022-10-31T17:21:20;19.30;;;6.63;;
27794;SDS011;15176;50.844;4.412;2022-10-31T17:23:48;14.48;;;5.35;;
27794;SDS011;15176;50.844;4.412;2022-10-31T17:26:14;17.38;;;6.18;;
27794;SDS011;15176;50.844;4.412;2022-10-31T17:28:40;13.10;;;6.28;;
27794;SDS011;15176;50.844;4.412;2022-10-31T17:31:07;18.20;;;7.60;;
27794;SDS011;15176;50.844;4.412;2022-10-31T17:33:50;16.90;;;5.72;;
27794;SDS011;15176;50.844;4.412;2022-10-31T17:36:19;18.70;;;7.28;;
27794;SDS011;15176;50.844;4.412;2022-10-31T17:38:45;19.80;;;8.43;;